sensor_id;sensor_type;location;lat;lon;timestamp;pressure;altitude;pressure_sealevel;temperature;humidity
78841;BME280;68379;47.190;27.558;2023-03-31T00:01:58;99470.91;;;3.62;36.76
78841;BME280;68379;47.190;27.558;2023-03-31T00:04:31;99463.34;;;3.65;36.92
78841;BME280;68379;47.190;27.558;2023-03-31T00:07:03;99457.02;;;3.66;36.64
78841;BME280;68379;47.190;27.558;2023-03-31T00:09:36;99450.71;;;3.68;36.89
78841;BME280;68379;47.190;27.558;2023-03-31T00:12:10;99447.19;;;3.70;36.79
78841;BME280;68379;47.190;27.558;2023-03-31T00:14:42;99442.09;;;3.71;36.80
78841;BME280;68379;47.190;27.558;2023-03-31T00:17:14;99438.39;;;3.72;36.81
78841;BME280;68379;47.190;27.558;2023-03-31T00:19:46;99434.64;;;3.77;37.04
78841;BME280;68379;47.190;27.558;2023-03-31T00:22:19;99433.63;;;3.84;37.19
78841;BME280;68379;47.190;27.558;2023-03-31T00:24:51;99434.30;;;3.95;37.04
78841;BME280;68379;47.190;27.558;2023-03-31T00:27:23;99439.55;;;4.05;36.73
78841;BME280;68379;47.190;27.558;2023-03-31T00:29:57;99440.14;;;4.10;36.70
78841;BME280;68379;47.190;27.558;2023-03-31T00:32:29;99437.66;;;4.12;36.60
78841;BME280;68379;47.190;27.558;2023-03-31T00:35:02;99437.13;;;4.13;36.73
78841;BME280;68379;47.190;27.558;2023-03-31T00:37:34;99429.05;;;4.13;36.66
78841;BME280;68379;47.190;27.558;2023-03-31T00:40:08;99419.95;;;4.15;36.62
78841;BME280;68379;47.190;27.558;2023-03-31T00:42:44;99415.02;;;4.16;36.56
78841;BME280;68379;47.190;27.558;2023-03-31T00:45:26;99411.83;;;4.18;36.83
78841;BME280;68379;47.190;27.558;2023-03-31T00:48:04;99414.58;;;4.20;36.92
78841;BME280;68379;47.190;27.558;2023-03-31T00:50:48;99416.29;;;4.23;36.89
78841;BME280;68379;47.190;27.558;2023-03-31T00:53:23;99411.70;;;4.24;36.90
78841;BME280;68379;47.190;27.558;2023-03-31T00:56:00;99408.16;;;4.26;36.89
78841;BME280;68379;47.190;27.558;2023-03-31T00:58:36;99403.95;;;4.28;37.01
78841;BME280;68379;47.190;27.558;2023-03-31T01:01:16;99400.77;;;4.29;37.00
78841;BME280;68379;47.190;27.558;2023-03-31T01:03:49;99396.20;;;4.29;36.93
78841;BME280;68379;47.190;27.558;2023-03-31T01:06:23;99390.42;;;4.30;36.95
78841;BME280;68379;47.190;27.558;2023-03-31T01:08:55;99388.96;;;4.33;37.62
78841;BME280;68379;47.190;27.558;2023-03-31T01:11:28;99379.85;;;4.34;37.66
78841;BME280;68379;47.190;27.558;2023-03-31T01:14:01;99377.20;;;4.34;37.36
78841;BME280;68379;47.190;27.558;2023-03-31T01:16:33;99375.80;;;4.35;37.40
78841;BME280;68379;47.190;27.558;2023-03-31T01:19:17;99372.97;;;4.37;37.65
78841;BME280;68379;47.190;27.558;2023-03-31T01:25:37;99363.22;;;4.42;37.66
78841;BME280;68379;47.190;27.558;2023-03-31T01:28:33;99360.30;;;4.48;37.53
78841;BME280;68379;47.190;27.558;2023-03-31T01:34:45;99354.94;;;4.53;37.40
78841;BME280;68379;47.190;27.558;2023-03-31T01:37:43;99351.96;;;4.53;37.45
78841;BME280;68379;47.190;27.558;2023-03-31T01:43:18;99338.83;;;4.54;37.94
78841;BME280;68379;47.190;27.558;2023-03-31T01:45:59;99336.39;;;4.53;37.91
78841;BME280;68379;47.190;27.558;2023-03-31T01:48:46;99334.15;;;4.52;37.80
78841;BME280;68379;47.190;27.558;2023-03-31T01:51:25;99331.04;;;4.51;38.12
78841;BME280;68379;47.190;27.558;2023-03-31T01:54:10;99327.39;;;4.49;38.42
78841;BME280;68379;47.190;27.558;2023-03-31T01:56:47;99325.05;;;4.44;38.26
78841;BME280;68379;47.190;27.558;2023-03-31T01:59:25;99317.63;;;4.40;38.13
78841;BME280;68379;47.190;27.558;2023-03-31T02:02:01;99316.30;;;4.36;38.22
78841;BME280;68379;47.190;27.558;2023-03-31T02:04:38;99314.50;;;4.32;38.07
78841;BME280;68379;47.190;27.558;2023-03-31T02:07:14;99312.11;;;4.28;38.40
78841;BME280;68379;47.190;27.558;2023-03-31T02:09:52;99307.85;;;4.24;38.33
78841;BME280;68379;47.190;27.558;2023-03-31T02:12:29;99306.73;;;4.18;38.93
78841;BME280;68379;47.190;27.558;2023-03-31T02:15:06;99301.91;;;4.15;38.70
78841;BME280;68379;47.190;27.558;2023-03-31T02:17:41;99297.76;;;4.14;38.73
78841;BME280;68379;47.190;27.558;2023-03-31T02:20:16;99300.34;;;4.16;38.91
78841;BME280;68379;47.190;27.558;2023-03-31T02:22:53;99294.34;;;4.18;39.10
78841;BME280;68379;47.190;27.558;2023-03-31T02:25:31;99292.92;;;4.19;39.10
78841;BME280;68379;47.190;27.558;2023-03-31T02:28:09;99290.95;;;4.21;39.16
78841;BME280;68379;47.190;27.558;2023-03-31T02:30:52;99285.00;;;4.21;39.29
78841;BME280;68379;47.190;27.558;2023-03-31T02:33:29;99288.30;;;4.22;39.35
78841;BME280;68379;47.190;27.558;2023-03-31T02:36:01;99285.10;;;4.25;39.00
78841;BME280;68379;47.190;27.558;2023-03-31T02:38:37;99280.90;;;4.25;39.25
78841;BME280;68379;47.190;27.558;2023-03-31T02:41:10;99275.70;;;4.24;39.32
78841;BME280;68379;47.190;27.558;2023-03-31T02:43:42;99274.88;;;4.21;39.20
78841;BME280;68379;47.190;27.558;2023-03-31T02:46:14;99271.20;;;4.13;40.36
78841;BME280;68379;47.190;27.558;2023-03-31T02:48:48;99261.83;;;4.02;40.83
78841;BME280;68379;47.190;27.558;2023-03-31T02:51:57;99252.65;;;3.90;41.45
78841;BME280;68379;47.190;27.558;2023-03-31T02:54:50;99250.67;;;3.76;41.31
78841;BME280;68379;47.190;27.558;2023-03-31T02:57:53;99251.20;;;3.68;41.24
78841;BME280;68379;47.190;27.558;2023-03-31T03:00:47;99251.64;;;3.64;41.02
78841;BME280;68379;47.190;27.558;2023-03-31T03:03:33;99257.59;;;3.63;40.80
78841;BME280;68379;47.190;27.558;2023-03-31T03:06:18;99255.62;;;3.65;40.69
78841;BME280;68379;47.190;27.558;2023-03-31T03:09:06;99245.30;;;3.67;40.70
78841;BME280;68379;47.190;27.558;2023-03-31T03:11:48;99244.27;;;3.66;40.94
78841;BME280;68379;47.190;27.558;2023-03-31T03:14:30;99240.96;;;3.64;40.73
78841;BME280;68379;47.190;27.558;2023-03-31T03:17:08;99234.55;;;3.62;40.81
78841;BME280;68379;47.190;27.558;2023-03-31T03:19:42;99232.16;;;3.60;40.97
78841;BME280;68379;47.190;27.558;2023-03-31T03:22:14;99231.36;;;3.56;41.08
78841;BME280;68379;47.190;27.558;2023-03-31T03:24:46;99227.77;;;3.53;41.33
78841;BME280;68379;47.190;27.558;2023-03-31T03:27:18;99224.48;;;3.51;41.29
78841;BME280;68379;47.190;27.558;2023-03-31T03:29:51;99220.71;;;3.47;41.65
78841;BME280;68379;47.190;27.558;2023-03-31T03:32:23;99223.04;;;3.45;41.47
78841;BME280;68379;47.190;27.558;2023-03-31T03:34:55;99223.19;;;3.46;41.41
78841;BME280;68379;47.190;27.558;2023-03-31T03:37:28;99214.39;;;3.49;41.50
78841;BME280;68379;47.190;27.558;2023-03-31T03:40:01;99207.55;;;3.51;41.77
78841;BME280;68379;47.190;27.558;2023-03-31T03:42:36;99206.45;;;3.53;41.89
78841;BME280;68379;47.190;27.558;2023-03-31T03:45:09;99211.92;;;3.58;41.79
78841;BME280;68379;47.190;27.558;2023-03-31T03:47:41;99206.77;;;3.63;42.94
78841;BME280;68379;47.190;27.558;2023-03-31T03:50:14;99203.42;;;3.64;42.33
78841;BME280;68379;47.190;27.558;2023-03-31T03:52:46;99193.98;;;3.65;42.66
78841;BME280;68379;47.190;27.558;2023-03-31T03:55:18;99189.21;;;3.67;42.38
78841;BME280;68379;47.190;27.558;2023-03-31T03:57:51;99195.48;;;3.68;42.59
78841;BME280;68379;47.190;27.558;2023-03-31T04:00:23;99203.48;;;3.69;43.02
78841;BME280;68379;47.190;27.558;2023-03-31T04:02:56;99195.98;;;3.70;42.92
78841;BME280;68379;47.190;27.558;2023-03-31T04:05:28;99193.36;;;3.69;42.82
78841;BME280;68379;47.190;27.558;2023-03-31T04:08:00;99187.08;;;3.69;43.01
78841;BME280;68379;47.190;27.558;2023-03-31T04:10:33;99184.48;;;3.68;43.23
78841;BME280;68379;47.190;27.558;2023-03-31T04:13:06;99182.35;;;3.69;43.16
78841;BME280;68379;47.190;27.558;2023-03-31T04:15:38;99182.27;;;3.73;42.94
78841;BME280;68379;47.190;27.558;2023-03-31T04:18:11;99178.70;;;3.76;42.89
78841;BME280;68379;47.190;27.558;2023-03-31T04:20:53;99170.20;;;3.81;42.71
78841;BME280;68379;47.190;27.558;2023-03-31T04:23:35;99166.20;;;3.88;42.62
78841;BME280;68379;47.190;27.558;2023-03-31T04:26:08;99165.47;;;3.97;42.52
78841;BME280;68379;47.190;27.558;2023-03-31T04:28:40;99158.92;;;4.08;42.39
78841;BME280;68379;47.190;27.558;2023-03-31T04:31:16;99159.90;;;4.18;42.26
78841;BME280;68379;47.190;27.558;2023-03-31T04:33:55;99158.52;;;4.31;42.09
78841;BME280;68379;47.190;27.558;2023-03-31T04:36:31;99154.70;;;4.44;41.70
78841;BME280;68379;47.190;27.558;2023-03-31T04:39:04;99150.92;;;4.55;41.30
78841;BME280;68379;47.190;27.558;2023-03-31T04:41:40;99152.02;;;4.67;41.58
78841;BME280;68379;47.190;27.558;2023-03-31T04:44:12;99150.90;;;4.76;41.56
78841;BME280;68379;47.190;27.558;2023-03-31T04:46:44;99150.52;;;4.83;42.40
78841;BME280;68379;47.190;27.558;2023-03-31T04:49:16;99156.89;;;4.88;42.35
78841;BME280;68379;47.190;27.558;2023-03-31T04:51:48;99148.42;;;4.90;42.86
78841;BME280;68379;47.190;27.558;2023-03-31T04:54:21;99150.60;;;4.87;42.74
78841;BME280;68379;47.190;27.558;2023-03-31T04:56:53;99149.20;;;4.80;42.95
78841;BME280;68379;47.190;27.558;2023-03-31T04:59:24;99150.05;;;4.75;42.54
78841;BME280;68379;47.190;27.558;2023-03-31T05:01:56;99145.91;;;4.73;42.93
78841;BME280;68379;47.190;27.558;2023-03-31T05:04:28;99146.81;;;4.71;42.92
78841;BME280;68379;47.190;27.558;2023-03-31T05:07:00;99143.86;;;4.71;42.81
78841;BME280;68379;47.190;27.558;2023-03-31T05:09:32;99142.70;;;4.69;42.87
78841;BME280;68379;47.190;27.558;2023-03-31T05:12:05;99143.85;;;4.71;43.16
78841;BME280;68379;47.190;27.558;2023-03-31T05:14:37;99143.68;;;4.78;42.81
78841;BME280;68379;47.190;27.558;2023-03-31T05:17:09;99143.73;;;4.89;43.30
78841;BME280;68379;47.190;27.558;2023-03-31T05:19:41;99142.77;;;4.98;43.52
78841;BME280;68379;47.190;27.558;2023-03-31T05:22:13;99134.02;;;5.04;43.84
78841;BME280;68379;47.190;27.558;2023-03-31T05:24:46;99132.27;;;5.04;43.41
78841;BME280;68379;47.190;27.558;2023-03-31T05:27:18;99129.44;;;5.05;43.26
78841;BME280;68379;47.190;27.558;2023-03-31T05:29:51;99122.23;;;5.06;43.41
78841;BME280;68379;47.190;27.558;2023-03-31T05:32:23;99119.02;;;5.08;43.74
78841;BME280;68379;47.190;27.558;2023-03-31T05:34:55;99119.92;;;5.07;43.41
78841;BME280;68379;47.190;27.558;2023-03-31T05:37:28;99116.89;;;5.10;43.59
78841;BME280;68379;47.190;27.558;2023-03-31T05:39:59;99113.09;;;5.14;43.44
78841;BME280;68379;47.190;27.558;2023-03-31T05:42:33;99108.20;;;5.25;43.33
78841;BME280;68379;47.190;27.558;2023-03-31T05:45:07;99111.41;;;5.41;43.48
78841;BME280;68379;47.190;27.558;2023-03-31T05:47:40;99112.59;;;5.54;43.59
78841;BME280;68379;47.190;27.558;2023-03-31T05:50:12;99111.75;;;5.70;43.45
78841;BME280;68379;47.190;27.558;2023-03-31T05:52:44;99108.94;;;5.87;43.45
78841;BME280;68379;47.190;27.558;2023-03-31T05:55:16;99108.90;;;6.05;43.27
78841;BME280;68379;47.190;27.558;2023-03-31T05:57:48;99105.96;;;6.20;42.50
78841;BME280;68379;47.190;27.558;2023-03-31T06:00:21;99098.45;;;6.19;42.61
78841;BME280;68379;47.190;27.558;2023-03-31T06:02:53;99091.80;;;6.24;43.25
78841;BME280;68379;47.190;27.558;2023-03-31T06:05:26;99090.59;;;6.34;42.94
78841;BME280;68379;47.190;27.558;2023-03-31T06:08:00;99087.80;;;6.43;43.06
78841;BME280;68379;47.190;27.558;2023-03-31T06:10:32;99086.24;;;6.53;43.00
78841;BME280;68379;47.190;27.558;2023-03-31T06:13:05;99088.04;;;6.62;42.93
78841;BME280;68379;47.190;27.558;2023-03-31T06:15:37;99082.13;;;6.55;42.77
78841;BME280;68379;47.190;27.558;2023-03-31T06:18:09;99082.16;;;6.49;43.46
78841;BME280;68379;47.190;27.558;2023-03-31T06:20:42;99081.95;;;6.45;43.25
78841;BME280;68379;47.190;27.558;2023-03-31T06:23:14;99084.27;;;6.49;43.53
78841;BME280;68379;47.190;27.558;2023-03-31T06:25:46;99085.90;;;6.58;43.29
78841;BME280;68379;47.190;27.558;2023-03-31T06:28:18;99088.46;;;6.70;43.44
78841;BME280;68379;47.190;27.558;2023-03-31T06:30:50;99088.28;;;6.74;42.98
78841;BME280;68379;47.190;27.558;2023-03-31T06:33:30;99088.39;;;6.81;43.20
78841;BME280;68379;47.190;27.558;2023-03-31T06:36:02;99089.63;;;6.86;42.97
78841;BME280;68379;47.190;27.558;2023-03-31T06:38:35;99085.41;;;6.91;42.68
78841;BME280;68379;47.190;27.558;2023-03-31T06:41:10;99087.42;;;7.03;42.86
78841;BME280;68379;47.190;27.558;2023-03-31T06:43:43;99086.77;;;7.16;42.86
78841;BME280;68379;47.190;27.558;2023-03-31T06:46:15;99084.88;;;7.19;42.44
78841;BME280;68379;47.190;27.558;2023-03-31T06:48:47;99084.63;;;7.17;42.54
78841;BME280;68379;47.190;27.558;2023-03-31T06:51:20;99086.73;;;7.26;42.51
78841;BME280;68379;47.190;27.558;2023-03-31T06:53:52;99086.08;;;7.39;42.51
78841;BME280;68379;47.190;27.558;2023-03-31T06:56:25;99087.88;;;7.51;42.45
78841;BME280;68379;47.190;27.558;2023-03-31T06:58:57;99085.77;;;7.65;42.83
78841;BME280;68379;47.190;27.558;2023-03-31T07:01:29;99084.71;;;7.82;42.67
78841;BME280;68379;47.190;27.558;2023-03-31T07:04:01;99087.15;;;7.83;41.81
78841;BME280;68379;47.190;27.558;2023-03-31T07:06:34;99084.74;;;7.72;41.54
78841;BME280;68379;47.190;27.558;2023-03-31T07:09:07;99086.75;;;7.71;41.98
78841;BME280;68379;47.190;27.558;2023-03-31T07:11:38;99085.40;;;7.83;42.11
78841;BME280;68379;47.190;27.558;2023-03-31T07:14:11;99083.11;;;8.00;41.88
78841;BME280;68379;47.190;27.558;2023-03-31T07:16:43;99077.19;;;8.20;41.63
78841;BME280;68379;47.190;27.558;2023-03-31T07:19:15;99073.13;;;8.42;41.36
78841;BME280;68379;47.190;27.558;2023-03-31T07:21:48;99071.56;;;8.69;41.27
78841;BME280;68379;47.190;27.558;2023-03-31T07:24:21;99067.50;;;9.01;40.87
78841;BME280;68379;47.190;27.558;2023-03-31T07:26:53;99065.53;;;9.25;40.56
78841;BME280;68379;47.190;27.558;2023-03-31T07:29:26;99067.77;;;9.41;40.13
78841;BME280;68379;47.190;27.558;2023-03-31T07:31:58;99062.90;;;9.47;39.95
78841;BME280;68379;47.190;27.558;2023-03-31T07:34:30;99065.77;;;9.39;39.63
78841;BME280;68379;47.190;27.558;2023-03-31T07:37:02;99065.71;;;9.33;40.15
78841;BME280;68379;47.190;27.558;2023-03-31T07:39:35;99069.05;;;9.33;39.74
78841;BME280;68379;47.190;27.558;2023-03-31T07:42:08;99067.79;;;9.33;40.15
78841;BME280;68379;47.190;27.558;2023-03-31T07:44:40;99061.39;;;9.46;39.96
78841;BME280;68379;47.190;27.558;2023-03-31T07:47:12;99060.86;;;9.50;39.43
78841;BME280;68379;47.190;27.558;2023-03-31T07:49:45;99057.64;;;9.54;39.21
78841;BME280;68379;47.190;27.558;2023-03-31T07:52:18;99057.01;;;9.57;39.03
78841;BME280;68379;47.190;27.558;2023-03-31T07:54:51;99059.20;;;9.55;38.89
78841;BME280;68379;47.190;27.558;2023-03-31T07:57:23;99056.55;;;9.59;39.18
78841;BME280;68379;47.190;27.558;2023-03-31T07:59:56;99059.52;;;9.67;39.35
78841;BME280;68379;47.190;27.558;2023-03-31T08:02:28;99061.96;;;9.71;39.50
78841;BME280;68379;47.190;27.558;2023-03-31T08:05:01;99061.41;;;9.75;39.72
78841;BME280;68379;47.190;27.558;2023-03-31T08:07:36;99060.03;;;9.85;39.54
78841;BME280;68379;47.190;27.558;2023-03-31T08:10:11;99060.52;;;9.90;39.14
78841;BME280;68379;47.190;27.558;2023-03-31T08:12:44;99055.52;;;9.84;39.13
78841;BME280;68379;47.190;27.558;2023-03-31T08:15:16;99059.08;;;9.87;39.09
78841;BME280;68379;47.190;27.558;2023-03-31T08:17:48;99056.88;;;9.92;38.99
78841;BME280;68379;47.190;27.558;2023-03-31T08:20:20;99059.62;;;9.94;39.04
78841;BME280;68379;47.190;27.558;2023-03-31T08:22:52;99054.36;;;9.97;38.94
78841;BME280;68379;47.190;27.558;2023-03-31T08:25:24;99051.58;;;10.03;38.77
78841;BME280;68379;47.190;27.558;2023-03-31T08:27:56;99052.64;;;10.06;38.78
78841;BME280;68379;47.190;27.558;2023-03-31T08:30:29;99051.23;;;10.17;38.70
78841;BME280;68379;47.190;27.558;2023-03-31T08:33:01;99050.61;;;10.26;38.47
78841;BME280;68379;47.190;27.558;2023-03-31T08:35:34;99049.48;;;10.35;38.22
78841;BME280;68379;47.190;27.558;2023-03-31T08:38:06;99046.03;;;10.43;37.94
78841;BME280;68379;47.190;27.558;2023-03-31T08:40:40;99037.84;;;10.58;37.68
78841;BME280;68379;47.190;27.558;2023-03-31T08:43:15;99037.74;;;10.83;37.66
78841;BME280;68379;47.190;27.558;2023-03-31T08:45:50;99037.86;;;11.07;37.14
78841;BME280;68379;47.190;27.558;2023-03-31T08:48:25;99034.38;;;11.26;37.34
78841;BME280;68379;47.190;27.558;2023-03-31T08:51:04;99030.23;;;11.50;37.17
78841;BME280;68379;47.190;27.558;2023-03-31T08:53:40;99030.77;;;11.66;36.50
78841;BME280;68379;47.190;27.558;2023-03-31T08:56:18;99030.10;;;11.71;36.31
78841;BME280;68379;47.190;27.558;2023-03-31T08:58:52;99028.90;;;11.76;36.45
78841;BME280;68379;47.190;27.558;2023-03-31T09:01:32;99024.91;;;11.78;36.07
78841;BME280;68379;47.190;27.558;2023-03-31T09:04:23;99029.03;;;11.77;35.82
78841;BME280;68379;47.190;27.558;2023-03-31T09:07:06;99028.04;;;11.70;35.67
78841;BME280;68379;47.190;27.558;2023-03-31T09:09:46;99026.91;;;11.71;36.85
78841;BME280;68379;47.190;27.558;2023-03-31T09:12:29;99027.70;;;11.76;36.25
78841;BME280;68379;47.190;27.558;2023-03-31T09:15:11;99027.42;;;11.78;36.55
78841;BME280;68379;47.190;27.558;2023-03-31T09:17:46;99023.19;;;11.87;36.95
78841;BME280;68379;47.190;27.558;2023-03-31T09:20:24;99020.94;;;12.02;36.89
78841;BME280;68379;47.190;27.558;2023-03-31T09:23:03;99024.90;;;12.18;36.93
78841;BME280;68379;47.190;27.558;2023-03-31T09:25:40;99018.36;;;12.39;37.41
78841;BME280;68379;47.190;27.558;2023-03-31T09:28:20;99016.72;;;12.66;37.57
78841;BME280;68379;47.190;27.558;2023-03-31T09:30:53;99013.73;;;12.98;37.12
78841;BME280;68379;47.190;27.558;2023-03-31T09:33:28;99013.27;;;13.25;36.26
78841;BME280;68379;47.190;27.558;2023-03-31T09:36:04;99006.14;;;13.45;35.83
78841;BME280;68379;47.190;27.558;2023-03-31T09:38:40;99006.62;;;13.73;35.60
78841;BME280;68379;47.190;27.558;2023-03-31T09:41:15;98998.26;;;13.95;34.59
78841;BME280;68379;47.190;27.558;2023-03-31T09:43:48;98999.50;;;14.08;34.65
78841;BME280;68379;47.190;27.558;2023-03-31T09:46:27;98995.41;;;14.21;34.40
78841;BME280;68379;47.190;27.558;2023-03-31T09:49:03;98999.29;;;14.22;34.34
78841;BME280;68379;47.190;27.558;2023-03-31T09:51:39;99001.55;;;14.17;34.61
78841;BME280;68379;47.190;27.558;2023-03-31T09:54:18;99001.16;;;14.04;35.53
78841;BME280;68379;47.190;27.558;2023-03-31T09:56:53;99000.57;;;14.00;35.90
78841;BME280;68379;47.190;27.558;2023-03-31T09:59:33;98999.73;;;13.99;35.81
78841;BME280;68379;47.190;27.558;2023-03-31T10:02:22;98999.28;;;13.85;36.33
78841;BME280;68379;47.190;27.558;2023-03-31T10:04:58;98999.44;;;13.61;37.07
78841;BME280;68379;47.190;27.558;2023-03-31T10:07:30;99001.88;;;13.40;37.10
78841;BME280;68379;47.190;27.558;2023-03-31T10:10:05;99001.63;;;13.24;38.17
78841;BME280;68379;47.190;27.558;2023-03-31T10:12:51;99003.98;;;13.17;39.27
78841;BME280;68379;47.190;27.558;2023-03-31T10:15:29;99005.27;;;13.08;39.66
78841;BME280;68379;47.190;27.558;2023-03-31T10:18:01;99002.83;;;12.99;40.16
78841;BME280;68379;47.190;27.558;2023-03-31T10:20:36;99007.23;;;12.89;40.87
78841;BME280;68379;47.190;27.558;2023-03-31T10:23:16;99007.39;;;12.89;41.05
78841;BME280;68379;47.190;27.558;2023-03-31T10:25:49;99009.52;;;13.02;41.49
78841;BME280;68379;47.190;27.558;2023-03-31T10:28:22;99008.84;;;13.08;41.77
78841;BME280;68379;47.190;27.558;2023-03-31T10:30:57;99006.98;;;13.09;41.74
78841;BME280;68379;47.190;27.558;2023-03-31T10:33:31;99007.70;;;13.11;42.12
78841;BME280;68379;47.190;27.558;2023-03-31T10:36:14;99002.20;;;13.23;42.85
78841;BME280;68379;47.190;27.558;2023-03-31T10:38:50;99000.11;;;13.42;43.30
78841;BME280;68379;47.190;27.558;2023-03-31T10:41:26;99001.41;;;13.52;43.53
78841;BME280;68379;47.190;27.558;2023-03-31T10:43:59;98999.35;;;13.59;44.22
78841;BME280;68379;47.190;27.558;2023-03-31T10:46:45;98993.59;;;13.61;44.79
78841;BME280;68379;47.190;27.558;2023-03-31T10:49:25;98993.77;;;13.60;46.12
78841;BME280;68379;47.190;27.558;2023-03-31T10:51:56;98994.45;;;13.45;47.62
78841;BME280;68379;47.190;27.558;2023-03-31T10:54:28;98995.92;;;13.16;49.13
78841;BME280;68379;47.190;27.558;2023-03-31T10:57:01;98991.47;;;12.94;49.82
78841;BME280;68379;47.190;27.558;2023-03-31T10:59:48;98992.00;;;12.85;50.02
78841;BME280;68379;47.190;27.558;2023-03-31T11:05:31;98988.81;;;12.76;51.50
78841;BME280;68379;47.190;27.558;2023-03-31T11:08:18;98986.55;;;12.73;51.44
78841;BME280;68379;47.190;27.558;2023-03-31T11:11:08;98981.20;;;12.76;51.90
78841;BME280;68379;47.190;27.558;2023-03-31T11:13:50;98985.06;;;12.71;51.96
78841;BME280;68379;47.190;27.558;2023-03-31T11:16:32;98985.64;;;12.59;52.20
78841;BME280;68379;47.190;27.558;2023-03-31T11:19:22;98984.61;;;12.47;52.78
78841;BME280;68379;47.190;27.558;2023-03-31T11:22:08;98986.03;;;12.32;53.52
78841;BME280;68379;47.190;27.558;2023-03-31T11:25:08;98985.70;;;12.17;53.95
78841;BME280;68379;47.190;27.558;2023-03-31T11:27:59;98988.07;;;11.97;54.95
78841;BME280;68379;47.190;27.558;2023-03-31T11:30:39;98987.34;;;11.82;55.69
78841;BME280;68379;47.190;27.558;2023-03-31T11:33:39;98980.95;;;11.80;56.81
78841;BME280;68379;47.190;27.558;2023-03-31T11:36:28;98982.95;;;11.85;56.53
78841;BME280;68379;47.190;27.558;2023-03-31T11:39:16;98982.00;;;11.95;57.37
78841;BME280;68379;47.190;27.558;2023-03-31T11:41:56;98976.54;;;12.01;58.15
78841;BME280;68379;47.190;27.558;2023-03-31T11:44:34;98976.88;;;12.04;58.42
78841;BME280;68379;47.190;27.558;2023-03-31T11:47:11;98977.76;;;11.98;58.35
78841;BME280;68379;47.190;27.558;2023-03-31T11:49:50;98976.69;;;12.05;58.90
78841;BME280;68379;47.190;27.558;2023-03-31T11:52:27;98979.86;;;12.11;59.14
78841;BME280;68379;47.190;27.558;2023-03-31T11:55:03;98984.69;;;12.04;59.20
78841;BME280;68379;47.190;27.558;2023-03-31T11:57:40;98978.05;;;11.93;58.86
78841;BME280;68379;47.190;27.558;2023-03-31T12:00:19;98974.29;;;11.82;59.15
78841;BME280;68379;47.190;27.558;2023-03-31T12:02:54;98972.56;;;11.68;59.80
78841;BME280;68379;47.190;27.558;2023-03-31T12:05:33;98972.34;;;11.66;59.77
78841;BME280;68379;47.190;27.558;2023-03-31T12:08:11;98972.15;;;11.67;60.20
78841;BME280;68379;47.190;27.558;2023-03-31T12:10:49;98969.98;;;11.61;59.23
78841;BME280;68379;47.190;27.558;2023-03-31T12:13:37;98967.45;;;11.68;59.23
78841;BME280;68379;47.190;27.558;2023-03-31T12:16:13;98964.61;;;11.77;59.58
78841;BME280;68379;47.190;27.558;2023-03-31T12:18:58;98962.95;;;11.82;59.79
78841;BME280;68379;47.190;27.558;2023-03-31T12:21:39;98966.12;;;11.91;59.80
78841;BME280;68379;47.190;27.558;2023-03-31T12:24:14;98966.96;;;11.95;59.59
78841;BME280;68379;47.190;27.558;2023-03-31T12:26:45;98962.21;;;11.88;59.43
78841;BME280;68379;47.190;27.558;2023-03-31T12:29:27;98960.50;;;11.94;59.31
78841;BME280;68379;47.190;27.558;2023-03-31T12:32:03;98956.61;;;12.00;59.16
78841;BME280;68379;47.190;27.558;2023-03-31T12:34:41;98956.08;;;12.03;59.15
78841;BME280;68379;47.190;27.558;2023-03-31T12:38:06;98950.85;;;11.95;58.98
78841;BME280;68379;47.190;27.558;2023-03-31T12:40:54;98949.77;;;11.99;58.73
78841;BME280;68379;47.190;27.558;2023-03-31T12:43:53;98951.14;;;12.03;59.09
78841;BME280;68379;47.190;27.558;2023-03-31T12:46:51;98950.29;;;11.96;59.14
78841;BME280;68379;47.190;27.558;2023-03-31T12:49:41;98949.17;;;11.84;60.12
78841;BME280;68379;47.190;27.558;2023-03-31T12:52:23;98946.42;;;11.77;60.11
78841;BME280;68379;47.190;27.558;2023-03-31T12:55:33;98948.62;;;11.73;60.12
78841;BME280;68379;47.190;27.558;2023-03-31T12:58:40;98947.38;;;11.73;60.46
78841;BME280;68379;47.190;27.558;2023-03-31T13:01:23;98944.69;;;11.76;60.30
78841;BME280;68379;47.190;27.558;2023-03-31T13:04:16;98946.95;;;11.83;60.24
78841;BME280;68379;47.190;27.558;2023-03-31T13:06:58;98939.01;;;11.95;60.40
78841;BME280;68379;47.190;27.558;2023-03-31T13:09:45;98936.27;;;12.00;60.23
78841;BME280;68379;47.190;27.558;2023-03-31T13:12:22;98939.65;;;12.05;60.57
78841;BME280;68379;47.190;27.558;2023-03-31T13:14:57;98939.14;;;11.99;60.64
78841;BME280;68379;47.190;27.558;2023-03-31T13:17:32;98935.42;;;11.87;61.12
78841;BME280;68379;47.190;27.558;2023-03-31T13:20:32;98932.36;;;11.72;61.00
78841;BME280;68379;47.190;27.558;2023-03-31T13:23:15;98932.35;;;11.66;61.50
78841;BME280;68379;47.190;27.558;2023-03-31T13:25:52;98926.85;;;11.61;61.83
78841;BME280;68379;47.190;27.558;2023-03-31T13:28:39;98924.20;;;11.54;62.21
78841;BME280;68379;47.190;27.558;2023-03-31T13:31:13;98918.71;;;11.48;62.51
78841;BME280;68379;47.190;27.558;2023-03-31T13:33:45;98913.65;;;11.47;62.72
78841;BME280;68379;47.190;27.558;2023-03-31T13:36:42;98911.09;;;11.45;62.79
78841;BME280;68379;47.190;27.558;2023-03-31T13:39:46;98907.11;;;11.41;63.12
78841;BME280;68379;47.190;27.558;2023-03-31T13:45:53;98903.19;;;11.29;63.31
78841;BME280;68379;47.190;27.558;2023-03-31T13:48:38;98898.86;;;11.28;63.47
78841;BME280;68379;47.190;27.558;2023-03-31T13:51:27;98899.21;;;11.30;63.52
78841;BME280;68379;47.190;27.558;2023-03-31T13:54:16;98898.73;;;11.36;64.07
78841;BME280;68379;47.190;27.558;2023-03-31T13:57:24;98893.75;;;11.42;64.43
78841;BME280;68379;47.190;27.558;2023-03-31T14:00:27;98892.54;;;11.45;64.47
78841;BME280;68379;47.190;27.558;2023-03-31T14:03:24;98892.45;;;11.52;64.58
78841;BME280;68379;47.190;27.558;2023-03-31T14:06:04;98888.97;;;11.67;64.21